sensor_id;sensor_type;location;lat;lon;timestamp;P1;durP1;ratioP1;P2;durP2;ratioP2
23567;SDS011;11962;50.838;4.430;2023-04-15T00:01:18;6.25;;;3.10;;
23567;SDS011;11962;50.838;4.430;2023-04-15T00:03:44;6.78;;;3.05;;
23567;SDS011;11962;50.838;4.430;2023-04-15T00:06:11;4.15;;;2.53;;
23567;SDS011;11962;50.838;4.430;2023-04-15T00:08:38;5.63;;;2.60;;
23567;SDS011;11962;50.838;4.430;2023-04-15T00:11:03;5.63;;;2.95;;
23567;SDS011;11962;50.838;4.430;2023-04-15T00:13:33;5.53;;;2.47;;
23567;SDS011;11962;50.838;4.430;2023-04-15T00:15:58;4.20;;;2.40;;
23567;SDS011;11962;50.838;4.430;2023-04-15T00:18:25;5.35;;;2.45;;
23567;SDS011;11962;50.838;4.430;2023-04-15T00:20:51;4.22;;;2.40;;
23567;SDS011;11962;50.838;4.430;2023-04-15T00:23:17;5.20;;;2.55;;
23567;SDS011;11962;50.838;4.430;2023-04-15T00:25:43;5.30;;;2.50;;
23567;SDS011;11962;50.838;4.430;2023-04-15T00:28:09;7.53;;;2.67;;
23567;SDS011;11962;50.838;4.430;2023-04-15T00:30:35;4.82;;;2.72;;
23567;SDS011;11962;50.838;4.430;2023-04-15T00:33:01;5.50;;;2.58;;
23567;SDS011;11962;50.838;4.430;2023-04-15T00:35:27;6.57;;;3.10;;
23567;SDS011;11962;50.838;4.430;2023-04-15T00:37:56;5.75;;;2.65;;
23567;SDS011;11962;50.838;4.430;2023-04-15T00:40:23;5.72;;;2.33;;
23567;SDS011;11962;50.838;4.430;2023-04-15T00:42:49;7.07;;;2.63;;
23567;SDS011;11962;50.838;4.430;2023-04-15T00:45:15;5.90;;;2.97;;
23567;SDS011;11962;50.838;4.430;2023-04-15T00:47:41;5.03;;;2.78;;
23567;SDS011;11962;50.838;4.430;2023-04-15T00:50:08;5.53;;;2.38;;
23567;SDS011;11962;50.838;4.430;2023-04-15T00:52:35;4.40;;;2.15;;
23567;SDS011;11962;50.838;4.430;2023-04-15T00:55:01;5.57;;;2.30;;
23567;SDS011;11962;50.838;4.430;2023-04-15T00:57:28;6.10;;;2.70;;
23567;SDS011;11962;50.838;4.430;2023-04-15T00:59:55;5.47;;;2.60;;
23567;SDS011;11962;50.838;4.430;2023-04-15T01:02:21;4.75;;;2.13;;
23567;SDS011;11962;50.838;4.430;2023-04-15T01:04:48;5.82;;;2.70;;
23567;SDS011;11962;50.838;4.430;2023-04-15T01:07:14;5.35;;;2.63;;
23567;SDS011;11962;50.838;4.430;2023-04-15T01:09:40;3.67;;;2.58;;
23567;SDS011;11962;50.838;4.430;2023-04-15T01:12:06;6.47;;;2.60;;
23567;SDS011;11962;50.838;4.430;2023-04-15T01:14:36;4.63;;;2.60;;
23567;SDS011;11962;50.838;4.430;2023-04-15T01:17:02;6.75;;;2.65;;
23567;SDS011;11962;50.838;4.430;2023-04-15T01:19:27;6.18;;;2.92;;
23567;SDS011;11962;50.838;4.430;2023-04-15T01:21:53;5.65;;;3.30;;
23567;SDS011;11962;50.838;4.430;2023-04-15T01:24:20;6.20;;;2.50;;
23567;SDS011;11962;50.838;4.430;2023-04-15T01:26:47;4.13;;;2.78;;
23567;SDS011;11962;50.838;4.430;2023-04-15T01:29:14;4.75;;;2.75;;
23567;SDS011;11962;50.838;4.430;2023-04-15T01:31:43;4.40;;;2.45;;
23567;SDS011;11962;50.838;4.430;2023-04-15T01:34:14;5.22;;;2.40;;
23567;SDS011;11962;50.838;4.430;2023-04-15T01:36:40;7.00;;;2.55;;
23567;SDS011;11962;50.838;4.430;2023-04-15T01:39:06;7.20;;;2.88;;
23567;SDS011;11962;50.838;4.430;2023-04-15T01:41:32;3.92;;;2.45;;
23567;SDS011;11962;50.838;4.430;2023-04-15T01:43:58;4.70;;;2.65;;
23567;SDS011;11962;50.838;4.430;2023-04-15T01:46:24;4.70;;;2.90;;
23567;SDS011;11962;50.838;4.430;2023-04-15T01:48:49;5.55;;;2.65;;
23567;SDS011;11962;50.838;4.430;2023-04-15T01:51:15;4.78;;;2.38;;
23567;SDS011;11962;50.838;4.430;2023-04-15T01:53:41;4.30;;;2.65;;
23567;SDS011;11962;50.838;4.430;2023-04-15T01:56:07;3.25;;;2.30;;
23567;SDS011;11962;50.838;4.430;2023-04-15T01:58:33;3.65;;;2.45;;
23567;SDS011;11962;50.838;4.430;2023-04-15T02:00:58;3.13;;;2.13;;
23567;SDS011;11962;50.838;4.430;2023-04-15T02:03:27;4.97;;;2.60;;
23567;SDS011;11962;50.838;4.430;2023-04-15T02:05:53;5.15;;;2.60;;
23567;SDS011;11962;50.838;4.430;2023-04-15T02:08:19;3.20;;;2.47;;
23567;SDS011;11962;50.838;4.430;2023-04-15T02:10:45;6.90;;;2.83;;
23567;SDS011;11962;50.838;4.430;2023-04-15T02:13:11;4.90;;;2.28;;
23567;SDS011;11962;50.838;4.430;2023-04-15T02:15:37;4.32;;;2.50;;
23567;SDS011;11962;50.838;4.430;2023-04-15T02:18:03;5.50;;;2.70;;
23567;SDS011;11962;50.838;4.430;2023-04-15T02:20:29;3.78;;;2.42;;
23567;SDS011;11962;50.838;4.430;2023-04-15T02:22:56;5.72;;;2.90;;
23567;SDS011;11962;50.838;4.430;2023-04-15T02:25:21;7.25;;;3.47;;
23567;SDS011;11962;50.838;4.430;2023-04-15T02:27:47;3.50;;;2.80;;
23567;SDS011;11962;50.838;4.430;2023-04-15T02:30:13;6.13;;;2.58;;
23567;SDS011;11962;50.838;4.430;2023-04-15T02:32:39;4.50;;;2.53;;
23567;SDS011;11962;50.838;4.430;2023-04-15T02:35:07;3.33;;;2.65;;
23567;SDS011;11962;50.838;4.430;2023-04-15T02:37:36;8.38;;;3.95;;
23567;SDS011;11962;50.838;4.430;2023-04-15T02:40:09;7.05;;;3.95;;
23567;SDS011;11962;50.838;4.430;2023-04-15T02:42:36;9.23;;;4.10;;
23567;SDS011;11962;50.838;4.430;2023-04-15T02:45:06;8.75;;;4.47;;
23567;SDS011;11962;50.838;4.430;2023-04-15T02:47:33;8.43;;;5.15;;
23567;SDS011;11962;50.838;4.430;2023-04-15T02:50:00;11.63;;;5.90;;
23567;SDS011;11962;50.838;4.430;2023-04-15T02:52:29;9.82;;;5.22;;
23567;SDS011;11962;50.838;4.430;2023-04-15T02:54:55;7.68;;;4.05;;
23567;SDS011;11962;50.838;4.430;2023-04-15T02:57:25;7.00;;;3.63;;
23567;SDS011;11962;50.838;4.430;2023-04-15T02:59:52;8.40;;;3.63;;
23567;SDS011;11962;50.838;4.430;2023-04-15T03:02:18;7.97;;;3.92;;
23567;SDS011;11962;50.838;4.430;2023-04-15T03:04:44;7.75;;;4.18;;
23567;SDS011;11962;50.838;4.430;2023-04-15T03:07:10;9.90;;;4.53;;
23567;SDS011;11962;50.838;4.430;2023-04-15T03:09:35;13.88;;;6.05;;
23567;SDS011;11962;50.838;4.430;2023-04-15T03:12:03;14.88;;;6.63;;
23567;SDS011;11962;50.838;4.430;2023-04-15T03:14:29;16.15;;;8.23;;
23567;SDS011;11962;50.838;4.430;2023-04-15T03:16:55;19.92;;;7.88;;
23567;SDS011;11962;50.838;4.430;2023-04-15T03:19:23;18.40;;;8.30;;
23567;SDS011;11962;50.838;4.430;2023-04-15T03:21:49;16.85;;;7.40;;
23567;SDS011;11962;50.838;4.430;2023-04-15T03:24:16;20.05;;;8.00;;
23567;SDS011;11962;50.838;4.430;2023-04-15T03:26:42;20.40;;;8.80;;
23567;SDS011;11962;50.838;4.430;2023-04-15T03:29:08;22.27;;;9.07;;
23567;SDS011;11962;50.838;4.430;2023-04-15T03:31:34;21.88;;;9.80;;
23567;SDS011;11962;50.838;4.430;2023-04-15T03:34:00;17.88;;;9.18;;
23567;SDS011;11962;50.838;4.430;2023-04-15T03:36:29;19.92;;;9.52;;
23567;SDS011;11962;50.838;4.430;2023-04-15T03:38:57;17.95;;;9.07;;
23567;SDS011;11962;50.838;4.430;2023-04-15T03:41:23;20.65;;;9.23;;
23567;SDS011;11962;50.838;4.430;2023-04-15T03:43:49;16.83;;;8.38;;
23567;SDS011;11962;50.838;4.430;2023-04-15T03:46:16;23.23;;;8.50;;
23567;SDS011;11962;50.838;4.430;2023-04-15T03:48:42;16.45;;;8.20;;
23567;SDS011;11962;50.838;4.430;2023-04-15T03:51:08;18.02;;;8.80;;
23567;SDS011;11962;50.838;4.430;2023-04-15T03:53:34;14.50;;;7.43;;
23567;SDS011;11962;50.838;4.430;2023-04-15T03:56:00;15.02;;;7.80;;
23567;SDS011;11962;50.838;4.430;2023-04-15T03:58:26;13.57;;;7.40;;
23567;SDS011;11962;50.838;4.430;2023-04-15T04:00:52;11.13;;;7.15;;
23567;SDS011;11962;50.838;4.430;2023-04-15T04:03:18;11.07;;;7.28;;
23567;SDS011;11962;50.838;4.430;2023-04-15T04:05:44;13.57;;;7.05;;
23567;SDS011;11962;50.838;4.430;2023-04-15T04:08:10;10.00;;;6.45;;
23567;SDS011;11962;50.838;4.430;2023-04-15T04:10:38;13.02;;;7.30;;
23567;SDS011;11962;50.838;4.430;2023-04-15T04:13:04;12.45;;;6.35;;
23567;SDS011;11962;50.838;4.430;2023-04-15T04:15:29;9.65;;;6.28;;
23567;SDS011;11962;50.838;4.430;2023-04-15T04:17:55;11.57;;;6.15;;
23567;SDS011;11962;50.838;4.430;2023-04-15T04:20:21;11.80;;;6.40;;
23567;SDS011;11962;50.838;4.430;2023-04-15T04:22:47;11.00;;;6.20;;
23567;SDS011;11962;50.838;4.430;2023-04-15T04:25:13;9.15;;;5.82;;
23567;SDS011;11962;50.838;4.430;2023-04-15T04:27:39;9.30;;;5.40;;
23567;SDS011;11962;50.838;4.430;2023-04-15T04:30:05;10.43;;;5.68;;
23567;SDS011;11962;50.838;4.430;2023-04-15T04:32:31;12.10;;;5.95;;
23567;SDS011;11962;50.838;4.430;2023-04-15T04:34:57;10.98;;;5.95;;
23567;SDS011;11962;50.838;4.430;2023-04-15T04:37:22;9.40;;;6.07;;
23567;SDS011;11962;50.838;4.430;2023-04-15T04:39:49;11.65;;;6.07;;
23567;SDS011;11962;50.838;4.430;2023-04-15T04:42:15;10.75;;;5.90;;
23567;SDS011;11962;50.838;4.430;2023-04-15T04:44:40;9.05;;;5.50;;
23567;SDS011;11962;50.838;4.430;2023-04-15T04:47:06;14.02;;;5.72;;
23567;SDS011;11962;50.838;4.430;2023-04-15T04:49:32;8.55;;;5.63;;
23567;SDS011;11962;50.838;4.430;2023-04-15T04:51:58;10.77;;;5.90;;
23567;SDS011;11962;50.838;4.430;2023-04-15T04:54:24;9.30;;;6.10;;
23567;SDS011;11962;50.838;4.430;2023-04-15T04:56:50;10.50;;;5.97;;
23567;SDS011;11962;50.838;4.430;2023-04-15T04:59:16;9.52;;;6.72;;
23567;SDS011;11962;50.838;4.430;2023-04-15T05:01:41;10.80;;;6.75;;
23567;SDS011;11962;50.838;4.430;2023-04-15T05:04:07;12.55;;;6.28;;
23567;SDS011;11962;50.838;4.430;2023-04-15T05:06:33;12.00;;;6.80;;
23567;SDS011;11962;50.838;4.430;2023-04-15T05:09:00;14.10;;;6.88;;
23567;SDS011;11962;50.838;4.430;2023-04-15T05:11:27;12.88;;;7.05;;
23567;SDS011;11962;50.838;4.430;2023-04-15T05:13:53;13.45;;;6.65;;
23567;SDS011;11962;50.838;4.430;2023-04-15T05:16:19;10.27;;;6.40;;
23567;SDS011;11962;50.838;4.430;2023-04-15T05:18:44;11.75;;;6.85;;
23567;SDS011;11962;50.838;4.430;2023-04-15T05:21:10;10.70;;;6.90;;
23567;SDS011;11962;50.838;4.430;2023-04-15T05:23:36;11.60;;;7.22;;
23567;SDS011;11962;50.838;4.430;2023-04-15T05:26:02;10.55;;;6.45;;
23567;SDS011;11962;50.838;4.430;2023-04-15T05:28:28;9.93;;;6.28;;
23567;SDS011;11962;50.838;4.430;2023-04-15T05:30:54;11.70;;;6.03;;
23567;SDS011;11962;50.838;4.430;2023-04-15T05:33:20;10.80;;;6.20;;
23567;SDS011;11962;50.838;4.430;2023-04-15T05:35:46;11.38;;;6.45;;
23567;SDS011;11962;50.838;4.430;2023-04-15T05:38:11;11.05;;;5.97;;
23567;SDS011;11962;50.838;4.430;2023-04-15T05:40:37;12.60;;;6.97;;
23567;SDS011;11962;50.838;4.430;2023-04-15T05:43:03;11.55;;;6.47;;
23567;SDS011;11962;50.838;4.430;2023-04-15T05:45:29;10.85;;;7.35;;
23567;SDS011;11962;50.838;4.430;2023-04-15T05:47:54;11.15;;;6.28;;
23567;SDS011;11962;50.838;4.430;2023-04-15T05:50:20;9.57;;;6.75;;
23567;SDS011;11962;50.838;4.430;2023-04-15T05:52:46;10.73;;;6.80;;
23567;SDS011;11962;50.838;4.430;2023-04-15T05:55:15;11.68;;;6.68;;
23567;SDS011;11962;50.838;4.430;2023-04-15T05:57:41;12.52;;;7.10;;
23567;SDS011;11962;50.838;4.430;2023-04-15T06:00:07;14.35;;;6.47;;
23567;SDS011;11962;50.838;4.430;2023-04-15T06:02:34;12.35;;;6.72;;
23567;SDS011;11962;50.838;4.430;2023-04-15T06:05:00;11.60;;;6.88;;
23567;SDS011;11962;50.838;4.430;2023-04-15T06:07:26;14.35;;;7.68;;
23567;SDS011;11962;50.838;4.430;2023-04-15T06:09:52;10.80;;;6.88;;
23567;SDS011;11962;50.838;4.430;2023-04-15T06:12:18;13.02;;;7.00;;
23567;SDS011;11962;50.838;4.430;2023-04-15T06:14:43;11.98;;;6.45;;
23567;SDS011;11962;50.838;4.430;2023-04-15T06:17:09;10.20;;;6.68;;
23567;SDS011;11962;50.838;4.430;2023-04-15T06:19:35;12.50;;;6.75;;
23567;SDS011;11962;50.838;4.430;2023-04-15T06:22:01;9.63;;;6.72;;
23567;SDS011;11962;50.838;4.430;2023-04-15T06:24:27;13.73;;;6.72;;
23567;SDS011;11962;50.838;4.430;2023-04-15T06:26:53;11.77;;;6.82;;
23567;SDS011;11962;50.838;4.430;2023-04-15T06:29:20;12.50;;;6.20;;
23567;SDS011;11962;50.838;4.430;2023-04-15T06:31:46;13.07;;;6.85;;
23567;SDS011;11962;50.838;4.430;2023-04-15T06:34:13;10.77;;;6.30;;
23567;SDS011;11962;50.838;4.430;2023-04-15T06:36:39;12.35;;;6.38;;
23567;SDS011;11962;50.838;4.430;2023-04-15T06:39:04;11.65;;;6.82;;
23567;SDS011;11962;50.838;4.430;2023-04-15T06:41:30;11.68;;;6.22;;
23567;SDS011;11962;50.838;4.430;2023-04-15T06:43:56;9.48;;;5.88;;
23567;SDS011;11962;50.838;4.430;2023-04-15T06:46:22;10.52;;;6.20;;
23567;SDS011;11962;50.838;4.430;2023-04-15T06:48:48;10.35;;;6.03;;
23567;SDS011;11962;50.838;4.430;2023-04-15T06:51:14;15.38;;;6.53;;
23567;SDS011;11962;50.838;4.430;2023-04-15T06:53:39;9.80;;;5.88;;
23567;SDS011;11962;50.838;4.430;2023-04-15T06:56:07;8.80;;;6.10;;
23567;SDS011;11962;50.838;4.430;2023-04-15T06:58:34;10.43;;;6.18;;
23567;SDS011;11962;50.838;4.430;2023-04-15T07:00:59;9.00;;;5.57;;
23567;SDS011;11962;50.838;4.430;2023-04-15T07:03:25;10.82;;;6.15;;
23567;SDS011;11962;50.838;4.430;2023-04-15T07:05:51;8.98;;;5.68;;
23567;SDS011;11962;50.838;4.430;2023-04-15T07:08:18;9.20;;;5.30;;
23567;SDS011;11962;50.838;4.430;2023-04-15T07:10:45;14.07;;;5.47;;
23567;SDS011;11962;50.838;4.430;2023-04-15T07:13:11;11.85;;;5.32;;
23567;SDS011;11962;50.838;4.430;2023-04-15T07:15:37;10.85;;;5.60;;
23567;SDS011;11962;50.838;4.430;2023-04-15T07:18:02;10.25;;;5.03;;
23567;SDS011;11962;50.838;4.430;2023-04-15T07:20:28;11.52;;;5.15;;
23567;SDS011;11962;50.838;4.430;2023-04-15T07:22:54;9.18;;;4.45;;
23567;SDS011;11962;50.838;4.430;2023-04-15T07:25:20;9.85;;;4.75;;
23567;SDS011;11962;50.838;4.430;2023-04-15T07:27:46;7.30;;;4.47;;
23567;SDS011;11962;50.838;4.430;2023-04-15T07:30:12;6.43;;;4.40;;
23567;SDS011;11962;50.838;4.430;2023-04-15T07:32:37;10.43;;;4.53;;
23567;SDS011;11962;50.838;4.430;2023-04-15T07:35:04;7.90;;;4.50;;
23567;SDS011;11962;50.838;4.430;2023-04-15T07:37:30;11.57;;;4.55;;
23567;SDS011;11962;50.838;4.430;2023-04-15T07:39:56;9.48;;;4.85;;
23567;SDS011;11962;50.838;4.430;2023-04-15T07:42:22;9.38;;;4.72;;
23567;SDS011;11962;50.838;4.430;2023-04-15T07:44:47;9.65;;;4.93;;
23567;SDS011;11962;50.838;4.430;2023-04-15T07:47:13;9.27;;;4.80;;
23567;SDS011;11962;50.838;4.430;2023-04-15T07:49:40;8.18;;;4.45;;
23567;SDS011;11962;50.838;4.430;2023-04-15T07:52:07;8.70;;;4.93;;
23567;SDS011;11962;50.838;4.430;2023-04-15T07:54:33;9.73;;;5.00;;
23567;SDS011;11962;50.838;4.430;2023-04-15T07:56:59;8.85;;;4.60;;
23567;SDS011;11962;50.838;4.430;2023-04-15T07:59:25;8.45;;;5.10;;
23567;SDS011;11962;50.838;4.430;2023-04-15T08:01:54;10.48;;;5.20;;
23567;SDS011;11962;50.838;4.430;2023-04-15T08:04:19;8.10;;;5.15;;
23567;SDS011;11962;50.838;4.430;2023-04-15T08:06:45;9.02;;;5.05;;
23567;SDS011;11962;50.838;4.430;2023-04-15T08:09:13;7.65;;;4.85;;
23567;SDS011;11962;50.838;4.430;2023-04-15T08:11:39;7.93;;;4.35;;
23567;SDS011;11962;50.838;4.430;2023-04-15T08:14:06;13.00;;;5.45;;
23567;SDS011;11962;50.838;4.430;2023-04-15T08:16:31;8.88;;;4.75;;
23567;SDS011;11962;50.838;4.430;2023-04-15T08:18:57;12.75;;;4.93;;
23567;SDS011;11962;50.838;4.430;2023-04-15T08:21:23;7.38;;;4.72;;
23567;SDS011;11962;50.838;4.430;2023-04-15T08:23:50;12.13;;;5.50;;
23567;SDS011;11962;50.838;4.430;2023-04-15T08:28:43;8.88;;;5.07;;
23567;SDS011;11962;50.838;4.430;2023-04-15T08:31:10;8.55;;;5.45;;
23567;SDS011;11962;50.838;4.430;2023-04-15T08:33:38;11.18;;;5.65;;
23567;SDS011;11962;50.838;4.430;2023-04-15T08:36:04;7.93;;;5.13;;
23567;SDS011;11962;50.838;4.430;2023-04-15T08:38:30;10.50;;;6.10;;
23567;SDS011;11962;50.838;4.430;2023-04-15T08:40:57;10.02;;;5.88;;
23567;SDS011;11962;50.838;4.430;2023-04-15T08:43:28;10.60;;;6.35;;
23567;SDS011;11962;50.838;4.430;2023-04-15T08:45:59;11.45;;;6.43;;
23567;SDS011;11962;50.838;4.430;2023-04-15T08:48:29;11.33;;;6.70;;
23567;SDS011;11962;50.838;4.430;2023-04-15T08:50:57;7.88;;;6.13;;
23567;SDS011;11962;50.838;4.430;2023-04-15T08:53:23;9.27;;;6.00;;
23567;SDS011;11962;50.838;4.430;2023-04-15T08:55:51;10.73;;;6.63;;
23567;SDS011;11962;50.838;4.430;2023-04-15T08:58:19;9.85;;;5.80;;
23567;SDS011;11962;50.838;4.430;2023-04-15T09:00:45;10.18;;;6.13;;
23567;SDS011;11962;50.838;4.430;2023-04-15T09:03:12;11.15;;;6.20;;
23567;SDS011;11962;50.838;4.430;2023-04-15T09:05:39;11.75;;;7.43;;
23567;SDS011;11962;50.838;4.430;2023-04-15T09:08:05;9.93;;;5.90;;
23567;SDS011;11962;50.838;4.430;2023-04-15T09:10:31;11.88;;;5.53;;
23567;SDS011;11962;50.838;4.430;2023-04-15T09:12:57;9.05;;;5.30;;
23567;SDS011;11962;50.838;4.430;2023-04-15T09:15:23;8.95;;;4.78;;
23567;SDS011;11962;50.838;4.430;2023-04-15T09:17:51;9.07;;;5.18;;
23567;SDS011;11962;50.838;4.430;2023-04-15T09:20:17;8.65;;;4.80;;
23567;SDS011;11962;50.838;4.430;2023-04-15T09:22:44;8.77;;;4.82;;
23567;SDS011;11962;50.838;4.430;2023-04-15T09:27:53;6.07;;;4.05;;
23567;SDS011;11962;50.838;4.430;2023-04-15T09:30:21;5.60;;;3.63;;
23567;SDS011;11962;50.838;4.430;2023-04-15T09:32:52;7.32;;;4.15;;
23567;SDS011;11962;50.838;4.430;2023-04-15T09:35:19;7.35;;;4.20;;
23567;SDS011;11962;50.838;4.430;2023-04-15T09:37:49;8.10;;;4.35;;
23567;SDS011;11962;50.838;4.430;2023-04-15T09:40:37;7.93;;;4.30;;
23567;SDS011;11962;50.838;4.430;2023-04-15T09:43:03;6.18;;;3.88;;
23567;SDS011;11962;50.838;4.430;2023-04-15T09:45:30;6.72;;;4.00;;
23567;SDS011;11962;50.838;4.430;2023-04-15T09:47:57;4.85;;;3.65;;
23567;SDS011;11962;50.838;4.430;2023-04-15T09:50:27;4.82;;;3.70;;
23567;SDS011;11962;50.838;4.430;2023-04-15T09:52:53;5.75;;;3.72;;
23567;SDS011;11962;50.838;4.430;2023-04-15T09:55:20;6.18;;;3.58;;
23567;SDS011;11962;50.838;4.430;2023-04-15T09:57:46;6.95;;;3.80;;
23567;SDS011;11962;50.838;4.430;2023-04-15T10:00:12;4.78;;;3.20;;
23567;SDS011;11962;50.838;4.430;2023-04-15T10:02:39;8.82;;;3.65;;
23567;SDS011;11962;50.838;4.430;2023-04-15T10:05:06;7.40;;;3.58;;
23567;SDS011;11962;50.838;4.430;2023-04-15T10:07:37;8.88;;;3.42;;
23567;SDS011;11962;50.838;4.430;2023-04-15T10:12:31;5.03;;;3.03;;
23567;SDS011;11962;50.838;4.430;2023-04-15T10:14:58;5.25;;;3.47;;
23567;SDS011;11962;50.838;4.430;2023-04-15T10:17:27;5.38;;;3.22;;
23567;SDS011;11962;50.838;4.430;2023-04-15T10:19:57;7.90;;;3.58;;
23567;SDS011;11962;50.838;4.430;2023-04-15T10:22:27;6.40;;;3.13;;
23567;SDS011;11962;50.838;4.430;2023-04-15T10:24:53;4.23;;;3.30;;
23567;SDS011;11962;50.838;4.430;2023-04-15T10:29:47;5.78;;;3.22;;
23567;SDS011;11962;50.838;4.430;2023-04-15T10:32:19;4.75;;;3.22;;
23567;SDS011;11962;50.838;4.430;2023-04-15T10:34:46;3.97;;;2.83;;
23567;SDS011;11962;50.838;4.430;2023-04-15T10:37:19;3.80;;;2.65;;
23567;SDS011;11962;50.838;4.430;2023-04-15T10:39:46;4.28;;;3.20;;
23567;SDS011;11962;50.838;4.430;2023-04-15T10:42:16;4.05;;;2.95;;
23567;SDS011;11962;50.838;4.430;2023-04-15T10:44:50;4.20;;;2.72;;
23567;SDS011;11962;50.838;4.430;2023-04-15T10:49:50;5.20;;;2.35;;
23567;SDS011;11962;50.838;4.430;2023-04-15T10:52:20;4.72;;;2.63;;
23567;SDS011;11962;50.838;4.430;2023-04-15T10:54:48;4.40;;;2.20;;
23567;SDS011;11962;50.838;4.430;2023-04-15T10:57:23;6.82;;;2.25;;
23567;SDS011;11962;50.838;4.430;2023-04-15T11:05:16;3.30;;;1.80;;
23567;SDS011;11962;50.838;4.430;2023-04-15T11:12:50;2.90;;;2.10;;
23567;SDS011;11962;50.838;4.430;2023-04-15T11:15:28;2.63;;;1.80;;
23567;SDS011;11962;50.838;4.430;2023-04-15T11:17:57;2.60;;;2.10;;
23567;SDS011;11962;50.838;4.430;2023-04-15T11:20:32;3.97;;;2.05;;
23567;SDS011;11962;50.838;4.430;2023-04-15T11:22:58;4.43;;;2.03;;
23567;SDS011;11962;50.838;4.430;2023-04-15T11:25:27;4.57;;;2.83;;
23567;SDS011;11962;50.838;4.430;2023-04-15T11:27:55;5.22;;;2.80;;
23567;SDS011;11962;50.838;4.430;2023-04-15T11:30:22;3.42;;;2.45;;
23567;SDS011;11962;50.838;4.430;2023-04-15T11:32:50;5.05;;;2.83;;
23567;SDS011;11962;50.838;4.430;2023-04-15T11:35:17;3.28;;;2.60;;
23567;SDS011;11962;50.838;4.430;2023-04-15T11:37:44;5.70;;;3.65;;
23567;SDS011;11962;50.838;4.430;2023-04-15T11:40:10;2.70;;;2.17;;
23567;SDS011;11962;50.838;4.430;2023-04-15T11:42:36;4.85;;;2.70;;
23567;SDS011;11962;50.838;4.430;2023-04-15T11:45:07;5.50;;;1.95;;
23567;SDS011;11962;50.838;4.430;2023-04-15T11:47:37;4.15;;;2.33;;
23567;SDS011;11962;50.838;4.430;2023-04-15T11:50:17;2.80;;;2.08;;
23567;SDS011;11962;50.838;4.430;2023-04-15T11:52:56;4.28;;;2.17;;
23567;SDS011;11962;50.838;4.430;2023-04-15T11:55:24;3.35;;;2.60;;
23567;SDS011;11962;50.838;4.430;2023-04-15T12:00:46;3.53;;;2.30;;
23567;SDS011;11962;50.838;4.430;2023-04-15T12:03:18;2.97;;;2.30;;
23567;SDS011;11962;50.838;4.430;2023-04-15T12:06:06;2.40;;;2.20;;
23567;SDS011;11962;50.838;4.430;2023-04-15T12:11:42;2.75;;;2.47;;
23567;SDS011;11962;50.838;4.430;2023-04-15T12:14:11;5.65;;;2.60;;
23567;SDS011;11962;50.838;4.430;2023-04-15T12:16:42;5.78;;;3.80;;
23567;SDS011;11962;50.838;4.430;2023-04-15T12:19:22;5.13;;;3.35;;
23567;SDS011;11962;50.838;4.430;2023-04-15T12:21:51;4.03;;;2.42;;
23567;SDS011;11962;50.838;4.430;2023-04-15T12:24:21;3.00;;;2.10;;
23567;SDS011;11962;50.838;4.430;2023-04-15T12:26:51;5.63;;;2.28;;
23567;SDS011;11962;50.838;4.430;2023-04-15T12:29:19;5.60;;;3.00;;
23567;SDS011;11962;50.838;4.430;2023-04-15T12:31:52;5.22;;;2.90;;
23567;SDS011;11962;50.838;4.430;2023-04-15T12:36:53;3.28;;;1.70;;
23567;SDS011;11962;50.838;4.430;2023-04-15T12:42:09;3.22;;;2.20;;
23567;SDS011;11962;50.838;4.430;2023-04-15T12:44:36;3.50;;;2.40;;
23567;SDS011;11962;50.838;4.430;2023-04-15T12:47:03;4.97;;;2.72;;
23567;SDS011;11962;50.838;4.430;2023-04-15T12:49:29;4.03;;;2.20;;
23567;SDS011;11962;50.838;4.430;2023-04-15T12:51:57;4.15;;;2.15;;
23567;SDS011;11962;50.838;4.430;2023-04-15T12:54:24;4.47;;;2.60;;
23567;SDS011;11962;50.838;4.430;2023-04-15T12:56:51;3.70;;;2.75;;
23567;SDS011;11962;50.838;4.430;2023-04-15T12:59:18;3.70;;;2.05;;
23567;SDS011;11962;50.838;4.430;2023-04-15T13:01:44;2.75;;;1.98;;
23567;SDS011;11962;50.838;4.430;2023-04-15T13:04:11;6.30;;;5.15;;
23567;SDS011;11962;50.838;4.430;2023-04-15T13:06:37;3.05;;;2.50;;
23567;SDS011;11962;50.838;4.430;2023-04-15T13:09:03;3.05;;;2.15;;
23567;SDS011;11962;50.838;4.430;2023-04-15T13:11:29;5.45;;;2.42;;
23567;SDS011;11962;50.838;4.430;2023-04-15T13:13:57;3.20;;;2.38;;
23567;SDS011;11962;50.838;4.430;2023-04-15T13:16:24;3.40;;;2.25;;
23567;SDS011;11962;50.838;4.430;2023-04-15T13:18:50;4.13;;;1.92;;
23567;SDS011;11962;50.838;4.430;2023-04-15T13:21:16;4.07;;;2.42;;
23567;SDS011;11962;50.838;4.430;2023-04-15T13:23:42;4.00;;;2.00;;
23567;SDS011;11962;50.838;4.430;2023-04-15T13:26:08;4.65;;;2.13;;
23567;SDS011;11962;50.838;4.430;2023-04-15T13:28:34;2.45;;;2.00;;
23567;SDS011;11962;50.838;4.430;2023-04-15T13:31:00;3.17;;;2.40;;
23567;SDS011;11962;50.838;4.430;2023-04-15T13:33:26;5.80;;;2.60;;
23567;SDS011;11962;50.838;4.430;2023-04-15T13:35:52;4.72;;;2.35;;
23567;SDS011;11962;50.838;4.430;2023-04-15T13:38:17;5.88;;;3.30;;
23567;SDS011;11962;50.838;4.430;2023-04-15T13:40:43;7.38;;;3.80;;
23567;SDS011;11962;50.838;4.430;2023-04-15T13:43:09;8.13;;;3.90;;
23567;SDS011;11962;50.838;4.430;2023-04-15T13:45:35;6.80;;;2.90;;
23567;SDS011;11962;50.838;4.430;2023-04-15T13:48:01;3.75;;;2.53;;
23567;SDS011;11962;50.838;4.430;2023-04-15T13:50:27;6.25;;;2.80;;
23567;SDS011;11962;50.838;4.430;2023-04-15T13:52:53;6.82;;;1.88;;
23567;SDS011;11962;50.838;4.430;2023-04-15T13:55:19;3.05;;;1.90;;
23567;SDS011;11962;50.838;4.430;2023-04-15T13:57:44;3.97;;;2.13;;
23567;SDS011;11962;50.838;4.430;2023-04-15T14:00:11;2.97;;;2.00;;
23567;SDS011;11962;50.838;4.430;2023-04-15T14:02:37;3.92;;;1.73;;
23567;SDS011;11962;50.838;4.430;2023-04-15T14:05:04;4.97;;;2.00;;
23567;SDS011;11962;50.838;4.430;2023-04-15T14:07:30;2.97;;;1.52;;
23567;SDS011;11962;50.838;4.430;2023-04-15T14:09:56;4.38;;;1.63;;
23567;SDS011;11962;50.838;4.430;2023-04-15T14:12:22;3.78;;;1.58;;
23567;SDS011;11962;50.838;4.430;2023-04-15T14:14:48;4.70;;;2.10;;
23567;SDS011;11962;50.838;4.430;2023-04-15T14:17:13;5.88;;;2.42;;
23567;SDS011;11962;50.838;4.430;2023-04-15T14:19:39;5.45;;;2.65;;
23567;SDS011;11962;50.838;4.430;2023-04-15T14:22:05;5.63;;;2.80;;
23567;SDS011;11962;50.838;4.430;2023-04-15T14:24:31;3.90;;;2.25;;
23567;SDS011;11962;50.838;4.430;2023-04-15T14:26:57;3.83;;;2.00;;
23567;SDS011;11962;50.838;4.430;2023-04-15T14:29:23;5.63;;;1.85;;
23567;SDS011;11962;50.838;4.430;2023-04-15T14:31:49;4.40;;;1.30;;
23567;SDS011;11962;50.838;4.430;2023-04-15T14:34:15;3.38;;;1.13;;
23567;SDS011;11962;50.838;4.430;2023-04-15T14:36:41;2.90;;;0.90;;
23567;SDS011;11962;50.838;4.430;2023-04-15T14:39:08;3.28;;;1.13;;
23567;SDS011;11962;50.838;4.430;2023-04-15T14:41:34;1.60;;;0.75;;
23567;SDS011;11962;50.838;4.430;2023-04-15T14:44:00;2.33;;;0.98;;
23567;SDS011;11962;50.838;4.430;2023-04-15T14:46:27;3.05;;;1.15;;
23567;SDS011;11962;50.838;4.430;2023-04-15T14:48:52;2.35;;;1.00;;
23567;SDS011;11962;50.838;4.430;2023-04-15T14:51:18;2.80;;;0.90;;
23567;SDS011;11962;50.838;4.430;2023-04-15T14:53:44;2.40;;;1.30;;
23567;SDS011;11962;50.838;4.430;2023-04-15T14:56:10;2.60;;;1.55;;
23567;SDS011;11962;50.838;4.430;2023-04-15T14:58:38;2.60;;;1.15;;
23567;SDS011;11962;50.838;4.430;2023-04-15T15:01:04;4.00;;;1.52;;
23567;SDS011;11962;50.838;4.430;2023-04-15T15:03:30;1.60;;;1.08;;
23567;SDS011;11962;50.838;4.430;2023-04-15T15:05:57;2.88;;;1.20;;
23567;SDS011;11962;50.838;4.430;2023-04-15T15:08:23;4.45;;;1.40;;
23567;SDS011;11962;50.838;4.430;2023-04-15T15:10:48;3.65;;;1.63;;
23567;SDS011;11962;50.838;4.430;2023-04-15T15:13:14;4.55;;;1.88;;
23567;SDS011;11962;50.838;4.430;2023-04-15T15:15:41;4.55;;;1.60;;